Terminal Aerodrome Forecast
Issued by NWS

Home | Current Version | Previous Version | Text Only | Print | Product List | Glossary On
Versions: 1 2 3 4 5 6 7
000
FTUS42 KTAE 280500
TAFABY
TAF
KABY 280524Z 2806/2906 09003KT 6SM BR OVC070
     FM281000 12003KT 4SM BR BKN030
     FM281300 18004KT 3SM BR OVC006
     FM281500 20006KT P6SM OVC012
     FM281700 21008KT P6SM BKN025
     FM282100 22008KT 5SM RA OVC015=

USA.gov is the U.S. government's official web portal to all federal, state and local government web resources and services.